createdAt,value
2022-09-28T00:01:39.809Z,96659.81
2022-09-28T00:04:28.373Z,96665.09
2022-09-28T00:07:16.718Z,96649.63
2022-09-28T00:10:07.578Z,96643.53
2022-09-28T00:12:56.418Z,96642.81
2022-09-28T00:15:44.746Z,96641.19
2022-09-28T00:18:34.047Z,96636.09
2022-09-28T00:21:24.173Z,96636.50
2022-09-28T00:24:16.025Z,96638.25
2022-09-28T00:27:06.190Z,96635.59
2022-09-28T00:29:55.193Z,96631.94
2022-09-28T00:32:52.961Z,96638.66
2022-09-28T00:35:49.484Z,96626.91
2022-09-28T00:38:41.068Z,96633.38
2022-09-28T00:41:49.170Z,96630.13
2022-09-28T00:44:45.427Z,96638.53
2022-09-28T00:47:52.303Z,96642.28
2022-09-28T00:50:42.266Z,96646.50
2022-09-28T00:53:38.856Z,96647.38
2022-09-28T00:56:31.571Z,96653.84
2022-09-28T00:59:25.199Z,96638.88
2022-09-28T01:02:16.587Z,96639.50
2022-09-28T01:05:10.342Z,96639.84
2022-09-28T01:08:00.009Z,96632.81
2022-09-28T01:10:48.997Z,96626.34
2022-09-28T01:13:42.368Z,96623.88
2022-09-28T01:16:39.512Z,96619.47
2022-09-28T01:20:00.292Z,96632.53
2022-09-28T01:23:24.245Z,96626.00
2022-09-28T01:26:40.885Z,96628.28
2022-09-28T01:29:38.905Z,96636.81
2022-09-28T01:32:36.612Z,96634.94
2022-09-28T01:35:28.739Z,96632.38
2022-09-28T01:38:21.898Z,96636.25
2022-09-28T01:41:11.408Z,96633.25
2022-09-28T01:44:04.036Z,96637.59
2022-09-28T01:46:54.870Z,96641.06
2022-09-28T01:49:47.335Z,96645.00
2022-09-28T01:52:41.403Z,96641.78
2022-09-28T01:55:33.994Z,96646.06
2022-09-28T01:58:29.618Z,96650.56
2022-09-28T02:01:23.750Z,96653.41
2022-09-28T02:04:17.054Z,96649.97
2022-09-28T02:07:14.208Z,96654.72
2022-09-28T02:10:09.785Z,96649.84
2022-09-28T02:13:03.750Z,96658.94
2022-09-28T02:15:54.591Z,96660.00
2022-09-28T02:18:45.641Z,96672.84
2022-09-28T02:21:42.981Z,96662.41
2022-09-28T02:24:38.903Z,96663.81
2022-09-28T02:27:35.758Z,96662.56
2022-09-28T02:30:24.398Z,96663.50
2022-09-28T02:33:17.829Z,96667.00
2022-09-28T02:36:08.152Z,96659.38
2022-09-28T02:39:01.317Z,96678.75
2022-09-28T02:42:03.011Z,96673.44
2022-09-28T02:45:07.299Z,96681.38
2022-09-28T02:48:08.832Z,96687.72
2022-09-28T02:51:07.328Z,96689.25
2022-09-28T02:54:24.917Z,96677.03
2022-09-28T02:57:25.222Z,96668.88
2022-09-28T03:00:18.795Z,96675.13
2022-09-28T03:03:18.882Z,96673.53
2022-09-28T03:06:16.935Z,96668.25
2022-09-28T03:09:19.768Z,96676.22
2022-09-28T03:12:12.333Z,96674.13
2022-09-28T03:15:10.890Z,96667.53
2022-09-28T03:18:00.755Z,96665.91
2022-09-28T03:20:50.164Z,96664.09
2022-09-28T03:23:38.712Z,96661.56
2022-09-28T03:26:28.460Z,96675.84
2022-09-28T03:29:17.423Z,96664.81
2022-09-28T03:32:08.572Z,96672.19
2022-09-28T03:34:57.265Z,96669.66
2022-09-28T03:37:45.627Z,96664.16
2022-09-28T03:40:34.074Z,96665.25
2022-09-28T03:43:24.383Z,96664.81
2022-09-28T03:46:14.260Z,96670.16
2022-09-28T03:49:07.386Z,96675.47
2022-09-28T03:51:55.749Z,96670.00
2022-09-28T03:54:49.050Z,96676.56
2022-09-28T03:57:37.903Z,96679.97
2022-09-28T04:00:28.051Z,96678.31
2022-09-28T04:03:17.144Z,96679.91
2022-09-28T04:06:05.871Z,96681.38
2022-09-28T04:08:54.386Z,96676.56
2022-09-28T04:12:02.314Z,96671.97
2022-09-28T04:14:51.544Z,96677.75
2022-09-28T04:17:41.307Z,96664.75
2022-09-28T04:20:41.013Z,96675.06
2022-09-28T04:23:34.716Z,96675.28
2022-09-28T04:26:25.153Z,96669.88
2022-09-28T04:29:19.019Z,96667.03
2022-09-28T04:32:11.541Z,96675.69
2022-09-28T04:35:03.131Z,96675.09
2022-09-28T04:37:51.653Z,96681.72
2022-09-28T04:40:40.357Z,96683.25
2022-09-28T04:43:29.524Z,96679.97
2022-09-28T04:46:18.725Z,96679.41
2022-09-28T04:49:24.560Z,96688.53
2022-09-28T04:52:26.816Z,96679.22
2022-09-28T04:55:15.590Z,96690.31
2022-09-28T04:58:05.600Z,96691.75
2022-09-28T05:00:55.511Z,96696.28
2022-09-28T05:04:02.780Z,96701.81
2022-09-28T05:07:09.846Z,96694.09
2022-09-28T05:10:01.736Z,96699.56
2022-09-28T05:12:52.552Z,96700.63
2022-09-28T05:15:42.538Z,96701.81
2022-09-28T05:18:30.981Z,96705.75
2022-09-28T05:21:25.524Z,96706.31
2022-09-28T05:24:14.175Z,96702.16
2022-09-28T05:27:07.118Z,96702.06
2022-09-28T05:29:55.728Z,96702.38
2022-09-28T05:33:03.190Z,96705.31
2022-09-28T05:36:04.316Z,96696.38
2022-09-28T05:38:52.902Z,96703.06
2022-09-28T05:41:41.376Z,96695.28
2022-09-28T05:44:31.226Z,96701.75
2022-09-28T05:47:19.772Z,96692.09
2022-09-28T05:50:11.856Z,96700.31
2022-09-28T05:53:02.281Z,96696.56
2022-09-28T05:55:50.771Z,96707.06
2022-09-28T05:58:39.298Z,96706.72
2022-09-28T06:01:29.326Z,96711.25
2022-09-28T06:04:19.800Z,96714.44
2022-09-28T06:07:09.744Z,96716.28
2022-09-28T06:09:58.372Z,96712.41
2022-09-28T06:13:00.053Z,96717.88
2022-09-28T06:15:48.487Z,96719.94
2022-09-28T06:18:38.478Z,96721.78
2022-09-28T06:21:32.776Z,96709.06
2022-09-28T06:24:21.226Z,96708.25
2022-09-28T06:27:09.557Z,96713.84
2022-09-28T06:30:00.975Z,96716.91
2022-09-28T06:32:50.044Z,96716.16
2022-09-28T06:35:40.058Z,96713.31
2022-09-28T06:38:28.731Z,96722.94
2022-09-28T06:41:17.095Z,96720.19
2022-09-28T06:44:09.105Z,96724.09
2022-09-28T06:47:17.678Z,96710.34
2022-09-28T06:50:34.963Z,96707.06
2022-09-28T06:53:43.393Z,96702.19
2022-09-28T06:56:50.145Z,96688.84
2022-09-28T06:59:40.570Z,96690.50
2022-09-28T07:02:28.999Z,96691.00
2022-09-28T07:05:37.869Z,96695.97
2022-09-28T07:08:48.798Z,96698.31
2022-09-28T07:12:04.269Z,96708.34
2022-09-28T07:15:03.945Z,96709.25
2022-09-28T07:18:02.391Z,96719.44
2022-09-28T07:20:54.651Z,96708.06
2022-09-28T07:23:52.394Z,96726.72
2022-09-28T07:26:45.491Z,96725.09
2022-09-28T07:30:00.083Z,96722.63
2022-09-28T07:33:21.008Z,96702.09
2022-09-28T07:36:11.865Z,96710.38
2022-09-28T07:39:01.816Z,96710.16
2022-09-28T07:41:49.393Z,96714.63
2022-09-28T07:44:41.100Z,96717.53
2022-09-28T07:47:34.647Z,96707.22
2022-09-28T07:50:41.937Z,96714.66
2022-09-28T07:53:41.593Z,96708.19
2022-09-28T07:57:00.545Z,96725.78
